sensor_id;sensor_type;location;lat;lon;timestamp;temperature;humidity
46055;DHT22;31788;6.954;-71.872;2022-10-19T00:03:32;29.40;99.90
46055;DHT22;31788;6.954;-71.872;2022-10-19T00:05:59;29.50;99.90
46055;DHT22;31788;6.954;-71.872;2022-10-19T00:08:26;29.40;99.90
46055;DHT22;31788;6.954;-71.872;2022-10-19T00:10:52;29.40;99.90
46055;DHT22;31788;6.954;-71.872;2022-10-19T00:13:19;29.40;99.90
46055;DHT22;31788;6.954;-71.872;2022-10-19T00:15:46;29.40;99.90
46055;DHT22;31788;6.954;-71.872;2022-10-19T00:18:12;29.40;99.90
46055;DHT22;31788;6.954;-71.872;2022-10-19T00:20:39;29.40;99.90
46055;DHT22;31788;6.954;-71.872;2022-10-19T00:23:05;29.40;99.90
46055;DHT22;31788;6.954;-71.872;2022-10-19T00:25:32;29.40;99.90
46055;DHT22;31788;6.954;-71.872;2022-10-19T00:28:00;29.30;99.90
46055;DHT22;31788;6.954;-71.872;2022-10-19T00:30:27;29.30;99.90
46055;DHT22;31788;6.954;-71.872;2022-10-19T00:32:53;29.30;99.90
46055;DHT22;31788;6.954;-71.872;2022-10-19T00:35:20;29.20;99.90
46055;DHT22;31788;6.954;-71.872;2022-10-19T00:37:48;29.10;99.90
46055;DHT22;31788;6.954;-71.872;2022-10-19T00:40:15;29.10;99.90
46055;DHT22;31788;6.954;-71.872;2022-10-19T00:42:41;28.90;99.90
46055;DHT22;31788;6.954;-71.872;2022-10-19T00:45:15;28.90;99.90
46055;DHT22;31788;6.954;-71.872;2022-10-19T00:47:44;28.90;99.90
46055;DHT22;31788;6.954;-71.872;2022-10-19T00:50:12;28.80;99.90
46055;DHT22;31788;6.954;-71.872;2022-10-19T00:52:39;28.80;99.90
46055;DHT22;31788;6.954;-71.872;2022-10-19T00:55:07;28.70;99.90
46055;DHT22;31788;6.954;-71.872;2022-10-19T00:57:34;28.80;99.90
46055;DHT22;31788;6.954;-71.872;2022-10-19T01:00:04;28.70;99.90
46055;DHT22;31788;6.954;-71.872;2022-10-19T01:02:31;28.70;99.90
46055;DHT22;31788;6.954;-71.872;2022-10-19T01:04:58;28.60;99.90
46055;DHT22;31788;6.954;-71.872;2022-10-19T01:07:26;28.60;99.90
46055;DHT22;31788;6.954;-71.872;2022-10-19T01:09:53;28.70;99.90
46055;DHT22;31788;6.954;-71.872;2022-10-19T01:17:56;28.60;99.90
46055;DHT22;31788;6.954;-71.872;2022-10-19T01:23:55;28.60;99.90
46055;DHT22;31788;6.954;-71.872;2022-10-19T01:32:24;28.80;99.90
46055;DHT22;31788;6.954;-71.872;2022-10-19T01:40:53;28.90;99.90
46055;DHT22;31788;6.954;-71.872;2022-10-19T01:43:37;28.90;99.90
46055;DHT22;31788;6.954;-71.872;2022-10-19T01:48:59;28.90;99.90
46055;DHT22;31788;6.954;-71.872;2022-10-19T01:51:36;28.90;99.90
46055;DHT22;31788;6.954;-71.872;2022-10-19T01:54:08;28.90;99.90
46055;DHT22;31788;6.954;-71.872;2022-10-19T01:56:37;28.90;99.90
46055;DHT22;31788;6.954;-71.872;2022-10-19T01:59:09;28.90;99.90
46055;DHT22;31788;6.954;-71.872;2022-10-19T02:01:40;28.90;99.90
46055;DHT22;31788;6.954;-71.872;2022-10-19T02:04:10;28.80;99.90
46055;DHT22;31788;6.954;-71.872;2022-10-19T02:06:39;28.80;99.90
46055;DHT22;31788;6.954;-71.872;2022-10-19T02:09:06;28.80;99.90
46055;DHT22;31788;6.954;-71.872;2022-10-19T02:11:35;28.80;99.90
46055;DHT22;31788;6.954;-71.872;2022-10-19T02:14:10;28.80;99.90
46055;DHT22;31788;6.954;-71.872;2022-10-19T02:20:00;28.80;99.90
46055;DHT22;31788;6.954;-71.872;2022-10-19T02:22:27;28.70;99.90
46055;DHT22;31788;6.954;-71.872;2022-10-19T02:24:54;28.70;99.90
46055;DHT22;31788;6.954;-71.872;2022-10-19T02:27:21;28.70;99.90
46055;DHT22;31788;6.954;-71.872;2022-10-19T02:29:47;28.60;99.90
46055;DHT22;31788;6.954;-71.872;2022-10-19T02:32:16;28.60;99.90
46055;DHT22;31788;6.954;-71.872;2022-10-19T02:34:42;28.60;99.90
46055;DHT22;31788;6.954;-71.872;2022-10-19T02:37:09;28.70;99.90
46055;DHT22;31788;6.954;-71.872;2022-10-19T02:39:37;28.60;99.90
46055;DHT22;31788;6.954;-71.872;2022-10-19T02:42:13;28.60;99.90
46055;DHT22;31788;6.954;-71.872;2022-10-19T02:45:16;28.60;99.90
46055;DHT22;31788;6.954;-71.872;2022-10-19T02:48:10;28.60;99.90
46055;DHT22;31788;6.954;-71.872;2022-10-19T02:50:35;28.50;99.90
46055;DHT22;31788;6.954;-71.872;2022-10-19T02:53:02;28.50;99.90
46055;DHT22;31788;6.954;-71.872;2022-10-19T02:55:30;28.50;99.90
46055;DHT22;31788;6.954;-71.872;2022-10-19T02:57:56;28.50;99.90
46055;DHT22;31788;6.954;-71.872;2022-10-19T03:00:23;28.50;99.90
46055;DHT22;31788;6.954;-71.872;2022-10-19T03:02:49;28.50;99.90
46055;DHT22;31788;6.954;-71.872;2022-10-19T03:05:16;28.50;99.90
46055;DHT22;31788;6.954;-71.872;2022-10-19T03:07:43;28.50;99.90
46055;DHT22;31788;6.954;-71.872;2022-10-19T03:10:09;28.50;99.90
46055;DHT22;31788;6.954;-71.872;2022-10-19T03:12:36;28.50;99.90
46055;DHT22;31788;6.954;-71.872;2022-10-19T03:15:03;28.40;99.90
46055;DHT22;31788;6.954;-71.872;2022-10-19T03:17:29;28.40;99.90
46055;DHT22;31788;6.954;-71.872;2022-10-19T03:19:56;28.40;99.90
46055;DHT22;31788;6.954;-71.872;2022-10-19T03:22:22;28.40;99.90
46055;DHT22;31788;6.954;-71.872;2022-10-19T03:24:49;28.40;99.90
46055;DHT22;31788;6.954;-71.872;2022-10-19T03:27:18;28.40;99.90
46055;DHT22;31788;6.954;-71.872;2022-10-19T03:29:45;28.40;99.90
46055;DHT22;31788;6.954;-71.872;2022-10-19T03:32:12;28.30;99.90
46055;DHT22;31788;6.954;-71.872;2022-10-19T03:34:38;28.30;99.90
46055;DHT22;31788;6.954;-71.872;2022-10-19T03:37:05;28.30;99.90
46055;DHT22;31788;6.954;-71.872;2022-10-19T03:39:33;28.30;99.90
46055;DHT22;31788;6.954;-71.872;2022-10-19T03:42:00;28.30;99.90
46055;DHT22;31788;6.954;-71.872;2022-10-19T03:44:27;28.30;99.90
46055;DHT22;31788;6.954;-71.872;2022-10-19T03:46:53;28.30;99.90
46055;DHT22;31788;6.954;-71.872;2022-10-19T03:49:20;28.30;99.90
46055;DHT22;31788;6.954;-71.872;2022-10-19T03:51:46;28.30;99.90
46055;DHT22;31788;6.954;-71.872;2022-10-19T03:54:15;28.30;99.90
46055;DHT22;31788;6.954;-71.872;2022-10-19T03:56:42;28.30;99.90
46055;DHT22;31788;6.954;-71.872;2022-10-19T03:59:12;28.20;99.90
46055;DHT22;31788;6.954;-71.872;2022-10-19T04:01:41;28.20;99.90
46055;DHT22;31788;6.954;-71.872;2022-10-19T04:04:16;28.20;99.90
46055;DHT22;31788;6.954;-71.872;2022-10-19T04:06:45;28.20;99.90
46055;DHT22;31788;6.954;-71.872;2022-10-19T04:09:17;28.20;99.90
46055;DHT22;31788;6.954;-71.872;2022-10-19T04:11:44;28.10;99.90
46055;DHT22;31788;6.954;-71.872;2022-10-19T04:14:15;28.10;99.90
46055;DHT22;31788;6.954;-71.872;2022-10-19T04:16:42;28.20;99.90
46055;DHT22;31788;6.954;-71.872;2022-10-19T04:19:13;28.10;99.90
46055;DHT22;31788;6.954;-71.872;2022-10-19T04:21:40;28.20;99.80
46055;DHT22;31788;6.954;-71.872;2022-10-19T04:24:11;28.20;99.80
46055;DHT22;31788;6.954;-71.872;2022-10-19T04:26:44;28.20;99.90
46055;DHT22;31788;6.954;-71.872;2022-10-19T04:29:11;28.20;99.90
46055;DHT22;31788;6.954;-71.872;2022-10-19T04:31:39;28.10;99.80
46055;DHT22;31788;6.954;-71.872;2022-10-19T04:34:06;28.20;99.70
46055;DHT22;31788;6.954;-71.872;2022-10-19T04:36:33;28.20;99.60
46055;DHT22;31788;6.954;-71.872;2022-10-19T04:39:00;28.20;99.70
46055;DHT22;31788;6.954;-71.872;2022-10-19T04:41:27;28.20;99.60
46055;DHT22;31788;6.954;-71.872;2022-10-19T04:43:58;28.20;99.80
46055;DHT22;31788;6.954;-71.872;2022-10-19T04:46:26;28.20;99.80
46055;DHT22;31788;6.954;-71.872;2022-10-19T04:48:53;28.20;99.80
46055;DHT22;31788;6.954;-71.872;2022-10-19T04:51:21;28.20;99.80
46055;DHT22;31788;6.954;-71.872;2022-10-19T04:53:48;28.10;99.70
46055;DHT22;31788;6.954;-71.872;2022-10-19T04:56:20;28.10;99.80
46055;DHT22;31788;6.954;-71.872;2022-10-19T04:58:47;28.10;99.80
46055;DHT22;31788;6.954;-71.872;2022-10-19T05:01:19;28.10;99.60
46055;DHT22;31788;6.954;-71.872;2022-10-19T05:03:46;28.10;99.80
46055;DHT22;31788;6.954;-71.872;2022-10-19T05:06:14;28.10;99.60
46055;DHT22;31788;6.954;-71.872;2022-10-19T05:08:41;28.10;99.70
46055;DHT22;31788;6.954;-71.872;2022-10-19T05:11:11;28.10;99.70
46055;DHT22;31788;6.954;-71.872;2022-10-19T05:13:39;28.10;99.70
46055;DHT22;31788;6.954;-71.872;2022-10-19T05:16:07;28.10;99.40
46055;DHT22;31788;6.954;-71.872;2022-10-19T05:18:36;28.00;99.40
46055;DHT22;31788;6.954;-71.872;2022-10-19T05:21:10;28.00;99.40
46055;DHT22;31788;6.954;-71.872;2022-10-19T05:23:38;28.00;99.50
46055;DHT22;31788;6.954;-71.872;2022-10-19T05:26:07;28.00;99.60
46055;DHT22;31788;6.954;-71.872;2022-10-19T05:28:34;28.00;99.60
46055;DHT22;31788;6.954;-71.872;2022-10-19T05:31:15;28.00;99.70
46055;DHT22;31788;6.954;-71.872;2022-10-19T05:33:42;28.00;99.80
46055;DHT22;31788;6.954;-71.872;2022-10-19T05:36:20;28.00;99.90
46055;DHT22;31788;6.954;-71.872;2022-10-19T05:38:50;28.00;99.90
46055;DHT22;31788;6.954;-71.872;2022-10-19T05:41:18;28.00;99.90
46055;DHT22;31788;6.954;-71.872;2022-10-19T05:43:46;28.00;99.90
46055;DHT22;31788;6.954;-71.872;2022-10-19T05:46:17;28.00;99.90
46055;DHT22;31788;6.954;-71.872;2022-10-19T05:48:44;28.00;99.90
46055;DHT22;31788;6.954;-71.872;2022-10-19T05:51:13;28.00;99.90
46055;DHT22;31788;6.954;-71.872;2022-10-19T05:53:40;28.00;99.90
46055;DHT22;31788;6.954;-71.872;2022-10-19T05:56:08;28.00;99.90
46055;DHT22;31788;6.954;-71.872;2022-10-19T05:58:37;28.00;99.90
46055;DHT22;31788;6.954;-71.872;2022-10-19T06:01:04;28.00;99.90
46055;DHT22;31788;6.954;-71.872;2022-10-19T06:03:31;28.00;99.90
46055;DHT22;31788;6.954;-71.872;2022-10-19T06:05:57;28.00;99.90
46055;DHT22;31788;6.954;-71.872;2022-10-19T06:08:24;28.00;99.90
46055;DHT22;31788;6.954;-71.872;2022-10-19T06:10:51;28.00;99.90
46055;DHT22;31788;6.954;-71.872;2022-10-19T06:13:18;28.00;99.90
46055;DHT22;31788;6.954;-71.872;2022-10-19T06:15:49;27.90;99.90
46055;DHT22;31788;6.954;-71.872;2022-10-19T06:18:16;27.90;99.90
46055;DHT22;31788;6.954;-71.872;2022-10-19T06:20:42;27.90;99.90
46055;DHT22;31788;6.954;-71.872;2022-10-19T06:23:09;27.90;99.90
46055;DHT22;31788;6.954;-71.872;2022-10-19T06:25:35;27.90;99.90
46055;DHT22;31788;6.954;-71.872;2022-10-19T06:28:03;27.90;99.90
46055;DHT22;31788;6.954;-71.872;2022-10-19T06:30:29;27.90;99.90
46055;DHT22;31788;6.954;-71.872;2022-10-19T06:32:57;27.90;99.90
46055;DHT22;31788;6.954;-71.872;2022-10-19T06:35:24;27.90;99.90
46055;DHT22;31788;6.954;-71.872;2022-10-19T06:37:51;27.80;99.90
46055;DHT22;31788;6.954;-71.872;2022-10-19T06:40:17;27.80;99.90
46055;DHT22;31788;6.954;-71.872;2022-10-19T06:42:44;27.80;99.90
46055;DHT22;31788;6.954;-71.872;2022-10-19T06:45:10;27.80;99.90
46055;DHT22;31788;6.954;-71.872;2022-10-19T06:47:37;27.80;99.90
46055;DHT22;31788;6.954;-71.872;2022-10-19T06:50:04;27.80;99.90
46055;DHT22;31788;6.954;-71.872;2022-10-19T06:52:32;27.80;99.90
46055;DHT22;31788;6.954;-71.872;2022-10-19T06:54:59;27.80;99.90
46055;DHT22;31788;6.954;-71.872;2022-10-19T06:57:26;27.70;99.90
46055;DHT22;31788;6.954;-71.872;2022-10-19T06:59:54;27.70;99.90
46055;DHT22;31788;6.954;-71.872;2022-10-19T07:02:21;27.70;99.90
46055;DHT22;31788;6.954;-71.872;2022-10-19T07:04:47;27.70;99.90
46055;DHT22;31788;6.954;-71.872;2022-10-19T07:07:14;27.60;99.90
46055;DHT22;31788;6.954;-71.872;2022-10-19T07:09:40;27.60;99.90
46055;DHT22;31788;6.954;-71.872;2022-10-19T07:12:07;27.50;99.90
46055;DHT22;31788;6.954;-71.872;2022-10-19T07:14:36;27.50;99.90
46055;DHT22;31788;6.954;-71.872;2022-10-19T07:17:05;27.50;99.90
46055;DHT22;31788;6.954;-71.872;2022-10-19T07:19:32;27.50;99.90
46055;DHT22;31788;6.954;-71.872;2022-10-19T07:21:59;27.50;99.90
46055;DHT22;31788;6.954;-71.872;2022-10-19T07:24:26;27.50;99.90
46055;DHT22;31788;6.954;-71.872;2022-10-19T07:26:52;27.50;99.90
46055;DHT22;31788;6.954;-71.872;2022-10-19T07:29:19;27.50;99.90
46055;DHT22;31788;6.954;-71.872;2022-10-19T07:31:46;27.50;99.90
46055;DHT22;31788;6.954;-71.872;2022-10-19T07:34:13;27.50;99.90
46055;DHT22;31788;6.954;-71.872;2022-10-19T07:36:43;27.50;99.90
46055;DHT22;31788;6.954;-71.872;2022-10-19T07:39:11;27.50;99.90
46055;DHT22;31788;6.954;-71.872;2022-10-19T07:41:38;27.50;99.90
46055;DHT22;31788;6.954;-71.872;2022-10-19T07:44:05;27.50;99.90
46055;DHT22;31788;6.954;-71.872;2022-10-19T07:46:32;27.50;99.90
46055;DHT22;31788;6.954;-71.872;2022-10-19T07:48:59;27.50;99.90
46055;DHT22;31788;6.954;-71.872;2022-10-19T07:51:26;27.50;99.90
46055;DHT22;31788;6.954;-71.872;2022-10-19T07:53:53;27.50;99.90
46055;DHT22;31788;6.954;-71.872;2022-10-19T07:56:21;27.50;99.90
46055;DHT22;31788;6.954;-71.872;2022-10-19T07:58:53;27.50;99.90
46055;DHT22;31788;6.954;-71.872;2022-10-19T08:01:22;27.50;99.90
46055;DHT22;31788;6.954;-71.872;2022-10-19T08:03:51;27.50;99.90
46055;DHT22;31788;6.954;-71.872;2022-10-19T08:06:19;27.50;99.90
46055;DHT22;31788;6.954;-71.872;2022-10-19T08:08:46;27.50;99.90
46055;DHT22;31788;6.954;-71.872;2022-10-19T08:11:26;27.50;99.90
46055;DHT22;31788;6.954;-71.872;2022-10-19T08:13:53;27.50;99.90
46055;DHT22;31788;6.954;-71.872;2022-10-19T08:16:26;27.50;99.90
46055;DHT22;31788;6.954;-71.872;2022-10-19T08:18:57;27.50;99.90
46055;DHT22;31788;6.954;-71.872;2022-10-19T08:21:25;27.50;99.90
46055;DHT22;31788;6.954;-71.872;2022-10-19T08:23:51;27.50;99.90
46055;DHT22;31788;6.954;-71.872;2022-10-19T08:26:18;27.50;99.90
46055;DHT22;31788;6.954;-71.872;2022-10-19T08:28:45;27.50;99.90
46055;DHT22;31788;6.954;-71.872;2022-10-19T08:31:17;27.50;99.90
46055;DHT22;31788;6.954;-71.872;2022-10-19T08:33:44;27.40;99.90
46055;DHT22;31788;6.954;-71.872;2022-10-19T08:36:12;27.40;99.90
46055;DHT22;31788;6.954;-71.872;2022-10-19T08:38:39;27.40;99.90
46055;DHT22;31788;6.954;-71.872;2022-10-19T08:47:31;27.40;99.90
46055;DHT22;31788;6.954;-71.872;2022-10-19T08:50:00;27.30;99.90
46055;DHT22;31788;6.954;-71.872;2022-10-19T08:52:32;27.40;99.90
46055;DHT22;31788;6.954;-71.872;2022-10-19T08:55:07;27.30;99.90
46055;DHT22;31788;6.954;-71.872;2022-10-19T08:57:48;27.30;99.90
46055;DHT22;31788;6.954;-71.872;2022-10-19T09:00:37;27.30;99.90
46055;DHT22;31788;6.954;-71.872;2022-10-19T09:04:06;27.30;99.90
46055;DHT22;31788;6.954;-71.872;2022-10-19T09:06:28;27.30;99.90
46055;DHT22;31788;6.954;-71.872;2022-10-19T09:08:57;27.30;99.90
46055;DHT22;31788;6.954;-71.872;2022-10-19T09:11:28;27.30;99.90
46055;DHT22;31788;6.954;-71.872;2022-10-19T09:16:49;27.30;99.90
46055;DHT22;31788;6.954;-71.872;2022-10-19T09:19:26;27.30;99.90
46055;DHT22;31788;6.954;-71.872;2022-10-19T09:22:19;27.30;99.90
46055;DHT22;31788;6.954;-71.872;2022-10-19T09:25:05;27.30;99.90
46055;DHT22;31788;6.954;-71.872;2022-10-19T09:27:39;27.30;99.90
46055;DHT22;31788;6.954;-71.872;2022-10-19T09:30:22;27.30;99.80
46055;DHT22;31788;6.954;-71.872;2022-10-19T09:32:57;27.30;99.70
46055;DHT22;31788;6.954;-71.872;2022-10-19T09:35:43;27.30;99.50
46055;DHT22;31788;6.954;-71.872;2022-10-19T09:38:14;27.30;99.50
46055;DHT22;31788;6.954;-71.872;2022-10-19T09:40:44;27.30;99.40
46055;DHT22;31788;6.954;-71.872;2022-10-19T09:43:11;27.30;99.50
46055;DHT22;31788;6.954;-71.872;2022-10-19T09:46:11;27.30;99.40
46055;DHT22;31788;6.954;-71.872;2022-10-19T09:48:47;27.30;99.50
46055;DHT22;31788;6.954;-71.872;2022-10-19T09:51:15;27.30;99.40
46055;DHT22;31788;6.954;-71.872;2022-10-19T09:53:52;27.30;99.50
46055;DHT22;31788;6.954;-71.872;2022-10-19T09:56:22;27.30;99.50
46055;DHT22;31788;6.954;-71.872;2022-10-19T09:58:51;27.30;99.60
46055;DHT22;31788;6.954;-71.872;2022-10-19T10:01:36;27.30;99.40
46055;DHT22;31788;6.954;-71.872;2022-10-19T10:06:32;27.30;99.60
46055;DHT22;31788;6.954;-71.872;2022-10-19T10:08:59;27.30;99.70
46055;DHT22;31788;6.954;-71.872;2022-10-19T10:11:30;27.30;99.80
46055;DHT22;31788;6.954;-71.872;2022-10-19T10:14:03;27.30;99.90
46055;DHT22;31788;6.954;-71.872;2022-10-19T10:16:34;27.30;99.90
46055;DHT22;31788;6.954;-71.872;2022-10-19T10:19:10;27.20;99.90
46055;DHT22;31788;6.954;-71.872;2022-10-19T10:21:51;27.20;99.90
46055;DHT22;31788;6.954;-71.872;2022-10-19T10:24:26;27.20;99.90
46055;DHT22;31788;6.954;-71.872;2022-10-19T10:27:01;27.20;99.90
46055;DHT22;31788;6.954;-71.872;2022-10-19T10:29:35;27.20;99.90
46055;DHT22;31788;6.954;-71.872;2022-10-19T10:32:17;27.20;99.90
46055;DHT22;31788;6.954;-71.872;2022-10-19T10:35:05;27.20;99.90
46055;DHT22;31788;6.954;-71.872;2022-10-19T10:37:42;27.20;99.90
46055;DHT22;31788;6.954;-71.872;2022-10-19T10:40:22;27.20;99.80
46055;DHT22;31788;6.954;-71.872;2022-10-19T10:42:51;27.20;99.70
46055;DHT22;31788;6.954;-71.872;2022-10-19T10:45:40;27.20;99.80
46055;DHT22;31788;6.954;-71.872;2022-10-19T10:48:27;27.30;99.80
46055;DHT22;31788;6.954;-71.872;2022-10-19T10:50:55;27.20;99.60
46055;DHT22;31788;6.954;-71.872;2022-10-19T10:55:58;27.20;99.30
46055;DHT22;31788;6.954;-71.872;2022-10-19T11:01:22;27.20;99.80
46055;DHT22;31788;6.954;-71.872;2022-10-19T11:03:59;27.20;99.90
46055;DHT22;31788;6.954;-71.872;2022-10-19T11:06:26;27.20;99.90
46055;DHT22;31788;6.954;-71.872;2022-10-19T11:11:45;27.10;99.90
46055;DHT22;31788;6.954;-71.872;2022-10-19T11:14:52;27.20;99.90
46055;DHT22;31788;6.954;-71.872;2022-10-19T11:17:17;27.20;99.90
46055;DHT22;31788;6.954;-71.872;2022-10-19T11:19:48;27.20;99.90
46055;DHT22;31788;6.954;-71.872;2022-10-19T11:30:19;27.20;99.90
46055;DHT22;31788;6.954;-71.872;2022-10-19T11:41:20;27.30;99.90
46055;DHT22;31788;6.954;-71.872;2022-10-19T11:44:01;27.30;99.90
46055;DHT22;31788;6.954;-71.872;2022-10-19T11:49:43;27.40;99.90
46055;DHT22;31788;6.954;-71.872;2022-10-19T11:52:23;27.30;99.90
46055;DHT22;31788;6.954;-71.872;2022-10-19T12:00:20;27.40;99.90
46055;DHT22;31788;6.954;-71.872;2022-10-19T12:05:27;27.50;99.90
46055;DHT22;31788;6.954;-71.872;2022-10-19T12:13:31;27.60;99.90
46055;DHT22;31788;6.954;-71.872;2022-10-19T12:15:59;27.70;99.90
46055;DHT22;31788;6.954;-71.872;2022-10-19T12:18:59;27.70;99.90
46055;DHT22;31788;6.954;-71.872;2022-10-19T12:21:32;27.80;99.90
46055;DHT22;31788;6.954;-71.872;2022-10-19T12:24:03;27.90;99.90
46055;DHT22;31788;6.954;-71.872;2022-10-19T12:26:34;27.90;99.90
46055;DHT22;31788;6.954;-71.872;2022-10-19T12:29:09;28.00;99.90
46055;DHT22;31788;6.954;-71.872;2022-10-19T12:31:38;28.10;99.90
46055;DHT22;31788;6.954;-71.872;2022-10-19T12:42:30;28.20;99.80
46055;DHT22;31788;6.954;-71.872;2022-10-19T12:53:31;28.30;99.80
46055;DHT22;31788;6.954;-71.872;2022-10-19T13:01:19;28.40;99.50
46055;DHT22;31788;6.954;-71.872;2022-10-19T13:03:47;28.40;99.40
46055;DHT22;31788;6.954;-71.872;2022-10-19T13:08:56;28.40;99.30
46055;DHT22;31788;6.954;-71.872;2022-10-19T13:11:24;28.50;99.30
46055;DHT22;31788;6.954;-71.872;2022-10-19T13:19:00;28.50;99.30
46055;DHT22;31788;6.954;-71.872;2022-10-19T13:43:49;28.60;99.40
46055;DHT22;31788;6.954;-71.872;2022-10-19T13:46:37;28.70;99.40
46055;DHT22;31788;6.954;-71.872;2022-10-19T14:00:20;28.80;99.30
46055;DHT22;31788;6.954;-71.872;2022-10-19T14:13:38;28.90;99.40
46055;DHT22;31788;6.954;-71.872;2022-10-19T14:16:04;29.00;99.50
46055;DHT22;31788;6.954;-71.872;2022-10-19T14:18:33;29.00;99.30
46055;DHT22;31788;6.954;-71.872;2022-10-19T14:21:05;29.00;99.30
46055;DHT22;31788;6.954;-71.872;2022-10-19T14:23:34;29.10;99.30
46055;DHT22;31788;6.954;-71.872;2022-10-19T14:26:04;29.10;99.30
46055;DHT22;31788;6.954;-71.872;2022-10-19T14:28:32;29.10;99.30
46055;DHT22;31788;6.954;-71.872;2022-10-19T14:31:11;29.10;99.40
46055;DHT22;31788;6.954;-71.872;2022-10-19T14:33:46;29.10;99.40
46055;DHT22;31788;6.954;-71.872;2022-10-19T14:36:23;29.20;99.30
46055;DHT22;31788;6.954;-71.872;2022-10-19T14:38:54;29.20;99.30
46055;DHT22;31788;6.954;-71.872;2022-10-19T14:41:30;29.30;99.40
46055;DHT22;31788;6.954;-71.872;2022-10-19T14:43:59;29.20;99.40
46055;DHT22;31788;6.954;-71.872;2022-10-19T14:46:32;29.30;99.40
46055;DHT22;31788;6.954;-71.872;2022-10-19T14:49:04;29.20;99.40
46055;DHT22;31788;6.954;-71.872;2022-10-19T14:51:41;29.30;99.60
46055;DHT22;31788;6.954;-71.872;2022-10-19T14:54:16;29.30;99.60
46055;DHT22;31788;6.954;-71.872;2022-10-19T14:59:36;29.30;99.70
46055;DHT22;31788;6.954;-71.872;2022-10-19T15:02:20;29.30;99.80
46055;DHT22;31788;6.954;-71.872;2022-10-19T15:04:47;29.30;99.70
46055;DHT22;31788;6.954;-71.872;2022-10-19T15:07:24;29.30;99.70
46055;DHT22;31788;6.954;-71.872;2022-10-19T15:09:58;29.30;99.70
46055;DHT22;31788;6.954;-71.872;2022-10-19T15:12:39;29.30;99.70
46055;DHT22;31788;6.954;-71.872;2022-10-19T15:15:27;29.30;99.70
46055;DHT22;31788;6.954;-71.872;2022-10-19T15:20:29;29.40;99.60
46055;DHT22;31788;6.954;-71.872;2022-10-19T15:22:57;29.40;99.50
46055;DHT22;31788;6.954;-71.872;2022-10-19T15:25:29;29.40;99.60
46055;DHT22;31788;6.954;-71.872;2022-10-19T15:28:19;29.40;99.50
46055;DHT22;31788;6.954;-71.872;2022-10-19T15:30:58;29.50;99.40
46055;DHT22;31788;6.954;-71.872;2022-10-19T15:33:25;29.50;99.40
46055;DHT22;31788;6.954;-71.872;2022-10-19T15:36:02;29.50;99.40
46055;DHT22;31788;6.954;-71.872;2022-10-19T15:38:29;29.60;99.30
46055;DHT22;31788;6.954;-71.872;2022-10-19T15:40:59;29.60;99.30
46055;DHT22;31788;6.954;-71.872;2022-10-19T15:48:42;29.60;99.30
46055;DHT22;31788;6.954;-71.872;2022-10-19T15:53:53;29.70;99.30
46055;DHT22;31788;6.954;-71.872;2022-10-19T15:56:20;29.70;99.20
46055;DHT22;31788;6.954;-71.872;2022-10-19T15:58:55;29.70;99.20
46055;DHT22;31788;6.954;-71.872;2022-10-19T16:01:24;29.70;99.30
46055;DHT22;31788;6.954;-71.872;2022-10-19T16:03:51;29.70;99.20
46055;DHT22;31788;6.954;-71.872;2022-10-19T16:06:20;29.70;99.10
46055;DHT22;31788;6.954;-71.872;2022-10-19T16:08:47;29.70;99.10
46055;DHT22;31788;6.954;-71.872;2022-10-19T16:11:18;29.70;99.10
46055;DHT22;31788;6.954;-71.872;2022-10-19T16:13:45;29.80;99.10
46055;DHT22;31788;6.954;-71.872;2022-10-19T16:16:37;29.70;99.10
46055;DHT22;31788;6.954;-71.872;2022-10-19T16:19:04;29.80;99.10
46055;DHT22;31788;6.954;-71.872;2022-10-19T16:21:33;29.80;98.90
46055;DHT22;31788;6.954;-71.872;2022-10-19T16:24:00;29.80;99.00
46055;DHT22;31788;6.954;-71.872;2022-10-19T16:26:27;29.80;99.10
46055;DHT22;31788;6.954;-71.872;2022-10-19T16:28:54;29.80;98.60
46055;DHT22;31788;6.954;-71.872;2022-10-19T16:31:21;29.80;98.90
46055;DHT22;31788;6.954;-71.872;2022-10-19T16:33:48;29.90;98.90
46055;DHT22;31788;6.954;-71.872;2022-10-19T16:36:15;29.90;98.80
46055;DHT22;31788;6.954;-71.872;2022-10-19T16:38:45;29.80;98.90
46055;DHT22;31788;6.954;-71.872;2022-10-19T16:41:13;29.80;98.90
46055;DHT22;31788;6.954;-71.872;2022-10-19T16:43:40;29.80;99.00
46055;DHT22;31788;6.954;-71.872;2022-10-19T16:46:07;29.80;98.90
46055;DHT22;31788;6.954;-71.872;2022-10-19T16:48:34;29.80;99.00
46055;DHT22;31788;6.954;-71.872;2022-10-19T16:51:23;29.70;99.10
46055;DHT22;31788;6.954;-71.872;2022-10-19T16:53:53;29.80;99.10
46055;DHT22;31788;6.954;-71.872;2022-10-19T16:56:22;29.80;99.10
46055;DHT22;31788;6.954;-71.872;2022-10-19T16:58:53;29.80;98.90
46055;DHT22;31788;6.954;-71.872;2022-10-19T17:01:21;29.80;99.00
46055;DHT22;31788;6.954;-71.872;2022-10-19T17:03:48;29.80;99.10
46055;DHT22;31788;6.954;-71.872;2022-10-19T17:06:15;29.80;99.10
46055;DHT22;31788;6.954;-71.872;2022-10-19T17:08:43;29.80;99.00
46055;DHT22;31788;6.954;-71.872;2022-10-19T17:11:16;29.80;98.80
46055;DHT22;31788;6.954;-71.872;2022-10-19T17:13:44;29.90;99.10
46055;DHT22;31788;6.954;-71.872;2022-10-19T17:16:12;30.00;98.50
46055;DHT22;31788;6.954;-71.872;2022-10-19T17:18:40;30.10;98.20
46055;DHT22;31788;6.954;-71.872;2022-10-19T17:21:19;30.20;97.90
46055;DHT22;31788;6.954;-71.872;2022-10-19T17:23:50;30.20;97.90
46055;DHT22;31788;6.954;-71.872;2022-10-19T17:26:17;30.30;97.50
46055;DHT22;31788;6.954;-71.872;2022-10-19T17:28:44;30.30;97.50
46055;DHT22;31788;6.954;-71.872;2022-10-19T17:31:13;30.30;97.40
46055;DHT22;31788;6.954;-71.872;2022-10-19T17:33:40;30.30;97.70
46055;DHT22;31788;6.954;-71.872;2022-10-19T17:36:13;30.30;98.00
46055;DHT22;31788;6.954;-71.872;2022-10-19T17:38:40;30.20;97.90
46055;DHT22;31788;6.954;-71.872;2022-10-19T17:41:13;30.20;97.80
46055;DHT22;31788;6.954;-71.872;2022-10-19T17:43:42;30.10;97.80
46055;DHT22;31788;6.954;-71.872;2022-10-19T17:46:11;30.10;98.00
46055;DHT22;31788;6.954;-71.872;2022-10-19T17:48:39;30.10;98.10
46055;DHT22;31788;6.954;-71.872;2022-10-19T17:51:11;30.10;98.10
46055;DHT22;31788;6.954;-71.872;2022-10-19T17:53:38;30.10;98.00
46055;DHT22;31788;6.954;-71.872;2022-10-19T17:56:06;30.10;97.80
46055;DHT22;31788;6.954;-71.872;2022-10-19T17:58:34;30.20;97.80
46055;DHT22;31788;6.954;-71.872;2022-10-19T18:01:01;30.20;97.60
46055;DHT22;31788;6.954;-71.872;2022-10-19T18:03:30;30.30;97.50
46055;DHT22;31788;6.954;-71.872;2022-10-19T18:06:02;30.30;97.30
46055;DHT22;31788;6.954;-71.872;2022-10-19T18:08:30;30.30;96.80
46055;DHT22;31788;6.954;-71.872;2022-10-19T18:10:58;30.40;96.80
46055;DHT22;31788;6.954;-71.872;2022-10-19T18:13:25;30.30;96.70
46055;DHT22;31788;6.954;-71.872;2022-10-19T18:16:08;30.40;97.00
46055;DHT22;31788;6.954;-71.872;2022-10-19T18:18:38;30.40;96.70
46055;DHT22;31788;6.954;-71.872;2022-10-19T18:21:07;30.40;96.80
46055;DHT22;31788;6.954;-71.872;2022-10-19T18:23:37;30.40;97.10
46055;DHT22;31788;6.954;-71.872;2022-10-19T18:26:11;30.40;96.80